Time;durP1;ratioP1;P1;durP2;ratioP2;P2;SDS_P1;SDS_P2;PMS_P1;PMS_P2;Temp;Humidity;BMP_temperature;BMP_pressure;BME280_temperature;BME280_humidity;BME280_pressure;Samples;Min_cycle;Max_cycle;Signal;HPM_P1;HPM_P2
2022/09/05 00:01:59;;;;;;;3.70;3.25;;;18.70;99.90;;;;;;4993918;28;20566;-85
2022/09/05 00:04:48;;;;;;;5.05;3.20;;;18.60;99.90;;;;;;4960892;28;20053;-84
2022/09/05 00:07:24;;;;;;;4.60;3.08;;;18.60;99.90;;;;;;4979819;28;20388;-84
2022/09/05 00:10:17;;;;;;;4.05;3.65;;;18.60;99.90;;;;;;4968218;28;20062;-83
2022/09/05 00:12:45;;;;;;;7.70;4.05;;;18.60;99.90;;;;;;4979463;28;20065;-84
2022/09/05 00:15:30;;;;;;;4.32;3.30;;;18.50;99.90;;;;;;4968354;28;20049;-85
2022/09/05 00:18:05;;;;;;;4.18;3.20;;;18.50;99.90;;;;;;4978526;28;20054;-85
2022/09/05 00:20:49;;;;;;;6.10;3.63;;;18.50;99.90;;;;;;4977375;28;20077;-84
2022/09/05 00:23:55;;;;;;;4.35;3.65;;;18.50;99.90;;;;;;4974965;28;20312;-85
2022/09/05 00:26:42;;;;;;;5.07;3.67;;;18.40;99.90;;;;;;4981347;28;20044;-84
2022/09/05 00:29:30;;;;;;;4.00;3.38;;;18.40;99.90;;;;;;4999562;28;20121;-84
2022/09/05 00:32:24;;;;;;;4.20;3.38;;;18.30;99.90;;;;;;4997739;28;20045;-85
2022/09/05 00:35:17;;;;;;;3.90;3.50;;;18.30;99.90;;;;;;4967535;28;20053;-84
2022/09/05 00:37:47;;;;;;;5.53;3.78;;;18.30;99.90;;;;;;4986416;28;20050;-85
2022/09/05 00:40:34;;;;;;;5.70;3.50;;;18.20;99.90;;;;;;4987552;28;20511;-83
2022/09/05 00:43:20;;;;;;;6.88;3.83;;;18.20;99.90;;;;;;4983200;28;20052;-84
2022/09/05 00:46:00;;;;;;;6.35;3.70;;;18.20;99.90;;;;;;4972401;28;20065;-83
2022/09/05 00:48:55;;;;;;;8.52;4.10;;;18.20;99.90;;;;;;4982442;28;20511;-83
2022/09/05 00:51:53;;;;;;;4.90;4.10;;;18.10;99.90;;;;;;4981834;28;20042;-84
2022/09/05 00:54:22;;;;;;;5.85;4.00;;;18.10;99.90;;;;;;4946644;28;20139;-84
2022/09/05 00:57:06;;;;;;;4.05;3.55;;;18.10;99.90;;;;;;4972541;28;20113;-83
2022/09/05 00:59:54;;;;;;;5.97;4.00;;;18.10;99.90;;;;;;4982302;28;20053;-82
2022/09/05 01:02:41;;;;;;;4.45;3.67;;;18.00;99.90;;;;;;4972403;28;20073;-83
2022/09/05 01:05:36;;;;;;;4.15;3.75;;;18.00;99.90;;;;;;4972551;28;20466;-84
2022/09/05 01:08:39;;;;;;;6.95;4.35;;;18.00;99.90;;;;;;4965729;28;20062;-83
2022/09/05 01:11:43;;;;;;;4.50;3.60;;;18.00;99.90;;;;;;4987056;28;20096;-84
2022/09/05 01:15:02;;;;;;;5.78;4.60;;;17.90;99.90;;;;;;4980037;28;20046;-84
2022/09/05 01:17:53;;;;;;;4.20;3.65;;;17.90;99.90;;;;;;4971019;28;20153;-83
2022/09/05 01:20:57;;;;;;;6.85;4.45;;;17.80;99.90;;;;;;4970501;28;20169;-84
2022/09/05 01:23:35;;;;;;;6.40;3.97;;;17.80;99.90;;;;;;4959059;28;20050;-83
2022/09/05 01:26:28;;;;;;;6.85;4.35;;;17.70;99.90;;;;;;4982578;28;20054;-84
2022/09/05 01:29:03;;;;;;;4.88;3.70;;;17.70;99.90;;;;;;4974065;28;20057;-83
2022/09/05 01:31:49;;;;;;;5.15;4.63;;;17.70;99.90;;;;;;4995833;28;20057;-84
2022/09/05 01:34:37;;;;;;;6.00;4.10;;;17.70;99.90;;;;;;4987506;28;20042;-84
2022/09/05 01:37:49;;;;;;;5.50;4.00;;;17.70;99.90;;;;;;4970081;28;20061;-84
2022/09/05 01:40:29;;;;;;;5.20;4.38;;;17.60;99.90;;;;;;4885194;29;20064;-84
2022/09/05 01:43:01;;;;;;;4.80;4.30;;;17.50;99.90;;;;;;4891273;29;20048;-84
2022/09/05 01:45:49;;;;;;;6.82;4.45;;;17.50;99.90;;;;;;4947300;28;20072;-83
2022/09/05 01:48:24;;;;;;;5.13;4.50;;;17.50;99.90;;;;;;4986062;28;20073;-84
2022/09/05 01:50:58;;;;;;;7.80;5.15;;;17.50;99.90;;;;;;4970823;28;20695;-84
2022/09/05 01:53:37;;;;;;;5.32;4.43;;;17.40;99.90;;;;;;4981762;28;20043;-84
2022/09/05 01:56:15;;;;;;;4.65;4.10;;;17.40;99.90;;;;;;4981274;28;20148;-83
2022/09/05 01:59:05;;;;;;;5.63;4.43;;;17.40;99.90;;;;;;4981358;28;20050;-84
2022/09/05 02:01:39;;;;;;;5.15;4.20;;;17.30;99.90;;;;;;4980064;28;20077;-84
2022/09/05 02:04:05;;;;;;;4.53;4.13;;;17.30;99.90;;;;;;4981070;28;20081;-84
2022/09/05 02:06:57;;;;;;;4.82;4.25;;;17.20;99.90;;;;;;4996576;28;20125;-84
2022/09/05 02:09:39;;;;;;;6.50;4.97;;;17.30;99.90;;;;;;4996022;28;21175;-83
2022/09/05 02:12:14;;;;;;;7.20;4.90;;;17.30;99.90;;;;;;4970080;28;20050;-83
2022/09/05 02:14:53;;;;;;;6.35;5.10;;;17.20;99.90;;;;;;4978760;28;20050;-84
2022/09/05 02:17:33;;;;;;;5.97;4.90;;;17.20;99.90;;;;;;4985697;28;20046;-82
2022/09/05 02:20:18;;;;;;;5.50;5.00;;;17.10;99.90;;;;;;4978358;28;20045;-86
2022/09/05 02:23:16;;;;;;;5.55;4.97;;;17.00;99.90;;;;;;4985203;28;20054;-83
2022/09/05 02:26:15;;;;;;;5.45;4.95;;;17.00;99.90;;;;;;4969769;28;20058;-84
2022/09/05 02:28:51;;;;;;;5.57;4.95;;;17.00;99.90;;;;;;4986994;28;20048;-84
2022/09/05 02:31:20;;;;;;;6.07;5.05;;;17.00;99.90;;;;;;4993884;28;20120;-82
2022/09/05 02:34:06;;;;;;;5.85;5.35;;;16.90;99.90;;;;;;4996903;28;20380;-84
2022/09/05 02:36:45;;;;;;;5.53;5.03;;;16.90;99.90;;;;;;4980294;28;20077;-84
2022/09/05 02:39:34;;;;;;;6.18;5.22;;;16.90;99.90;;;;;;4966715;28;20379;-83
2022/09/05 02:42:20;;;;;;;5.20;4.70;;;16.80;99.90;;;;;;4969083;28;20049;-83
2022/09/05 02:44:54;;;;;;;;;;;16.80;99.90;;;;;;4967972;28;20046;-84
2022/09/05 02:47:47;;;;;;;6.28;5.20;;;16.80;99.90;;;;;;4969190;28;19925;-83
2022/09/05 02:50:19;;;;;;;5.72;5.15;;;16.70;99.90;;;;;;4993717;28;20057;-83
2022/09/05 02:52:47;;;;;;;5.93;5.32;;;16.70;99.90;;;;;;4983079;28;20122;-84
2022/09/05 02:55:37;;;;;;;7.07;5.57;;;16.20;99.90;;;;;;4981670;28;20104;-84
2022/09/05 02:58:16;;;;;;;6.30;5.07;;;16.60;99.90;;;;;;4970800;28;20077;-83
2022/09/05 03:00:58;;;;;;;6.00;5.40;;;16.60;99.90;;;;;;4968245;28;20100;-84
2022/09/05 03:03:28;;;;;;;7.47;5.68;;;16.60;99.90;;;;;;4992425;28;20487;-83
2022/09/05 03:06:20;;;;;;;6.10;5.50;;;16.50;99.90;;;;;;4985610;28;20050;-83
2022/09/05 03:09:27;;;;;;;6.03;5.47;;;16.50;99.90;;;;;;4969028;28;20610;-83
2022/09/05 03:12:25;;;;;;;6.72;5.70;;;16.50;99.90;;;;;;4966752;28;20057;-83
2022/09/05 03:15:26;;;;;;;6.47;5.72;;;16.40;99.90;;;;;;4983508;28;20136;-84
2022/09/05 03:18:23;;;;;;;5.75;5.22;;;16.40;99.90;;;;;;4948548;28;20065;-83
2022/09/05 03:21:07;;;;;;;5.90;5.32;;;16.40;99.90;;;;;;4979010;28;20061;-83
2022/09/05 03:23:56;;;;;;;6.53;5.75;;;16.30;99.90;;;;;;4962292;28;20790;-84
2022/09/05 03:26:35;;;;;;;6.65;5.70;;;16.30;99.90;;;;;;4980797;28;20054;-84
2022/09/05 03:29:49;;;;;;;6.93;6.22;;;16.30;99.90;;;;;;4979767;28;20329;-86
2022/09/05 03:32:47;;;;;;;6.57;5.97;;;16.20;99.90;;;;;;4963999;28;20184;-86
2022/09/05 03:35:38;;;;;;;6.53;5.90;;;16.20;99.90;;;;;;4980053;28;20041;-84
2022/09/05 03:38:29;;;;;;;6.40;5.80;;;16.20;99.90;;;;;;4980271;28;20705;-83
2022/09/05 03:41:07;;;;;;;6.97;6.28;;;16.10;99.90;;;;;;4983944;28;20082;-84
2022/09/05 03:43:54;;;;;;;6.32;5.68;;;16.10;99.90;;;;;;4980680;28;20747;-84
2022/09/05 03:46:27;;;;;;;8.30;7.28;;;16.10;99.90;;;;;;4980820;28;20554;-83
2022/09/05 03:49:17;;;;;;;6.65;5.97;;;16.00;99.90;;;;;;4979541;28;20054;-83
2022/09/05 03:51:52;;;;;;;10.27;6.95;;;16.00;99.90;;;;;;4979584;28;20046;-83
2022/09/05 03:54:49;;;;;;;7.15;6.38;;;15.90;99.90;;;;;;4990877;28;20631;-84
2022/09/05 03:58:00;;;;;;;6.72;5.97;;;15.90;99.90;;;;;;4995063;28;20045;-84
2022/09/05 04:00:35;;;;;;;7.07;6.38;;;15.90;99.90;;;;;;4945685;28;20087;-84
2022/09/05 04:03:10;;;;;;;6.35;5.75;;;15.90;99.90;;;;;;4985189;28;20061;-82
2022/09/05 04:05:41;;;;;;;6.85;6.07;;;15.80;99.90;;;;;;4994300;28;20584;-83
2022/09/05 04:08:20;;;;;;;7.10;6.40;;;15.80;99.90;;;;;;4982957;28;20055;-84
2022/09/05 04:11:05;;;;;;;7.25;6.55;;;15.80;99.90;;;;;;4951574;28;20113;-83
2022/09/05 04:14:07;;;;;;;6.93;6.22;;;15.80;99.90;;;;;;4964914;28;20042;-84
2022/09/05 04:16:54;;;;;;;7.90;6.45;;;15.80;99.90;;;;;;4949661;28;20810;-83
2022/09/05 04:19:47;;;;;;;7.22;6.53;;;15.70;99.90;;;;;;4978996;28;20041;-82
2022/09/05 04:22:19;;;;;;;8.10;7.30;;;15.70;99.90;;;;;;4972979;28;20159;-84
2022/09/05 04:24:54;;;;;;;7.15;6.38;;;15.70;99.90;;;;;;4978836;28;20053;-85
2022/09/05 04:27:19;;;;;;;10.63;7.22;;;15.70;99.90;;;;;;4982571;28;20041;-83
2022/09/05 04:29:59;;;;;;;7.97;7.05;;;15.70;99.90;;;;;;4984564;28;20092;-86
2022/09/05 04:32:37;;;;;;;7.85;7.05;;;15.70;99.90;;;;;;4978204;28;20050;-86
2022/09/05 04:35:25;;;;;;;7.65;6.88;;;15.60;99.90;;;;;;4981187;28;20051;-87
2022/09/05 04:37:58;;;;;;;8.00;7.20;;;15.70;99.90;;;;;;4981382;28;20110;-85
2022/09/05 04:40:39;;;;;;;7.63;6.85;;;15.60;99.90;;;;;;4973869;28;20042;-87
2022/09/05 04:43:43;;;;;;;7.25;6.55;;;15.60;99.90;;;;;;4986044;28;20100;-87
2022/09/05 04:46:20;;;;;;;8.52;7.63;;;15.60;99.90;;;;;;4983400;28;20047;-87
2022/09/05 04:49:07;;;;;;;8.60;7.65;;;15.70;99.90;;;;;;4980124;28;20058;-88
2022/09/05 04:52:00;;;;;;;9.88;7.03;;;16.00;99.90;;;;;;4967527;28;20203;-84
2022/09/05 04:54:51;;;;;;;7.32;6.70;;;15.50;99.90;;;;;;4963578;28;20046;-85
2022/09/05 04:57:45;;;;;;;7.25;6.60;;;15.50;99.90;;;;;;4981967;28;20054;-85
2022/09/05 05:00:27;;;;;;;8.10;7.40;;;15.50;99.90;;;;;;4966417;28;20073;-86
2022/09/05 05:03:15;;;;;;;7.57;6.78;;;14.90;99.90;;;;;;4970618;28;20106;-87
2022/09/05 05:05:49;;;;;;;8.52;6.95;;;15.50;99.90;;;;;;4970180;28;20148;-85
2022/09/05 05:08:30;;;;;;;8.48;7.57;;;15.50;99.90;;;;;;4997637;28;20133;-86
2022/09/05 05:11:17;;;;;;;7.55;6.82;;;15.50;99.90;;;;;;4973279;28;20053;-84
2022/09/05 05:14:25;;;;;;;7.40;6.70;;;15.50;99.90;;;;;;4981027;28;20460;-86
2022/09/05 05:17:14;;;;;;;8.00;7.20;;;14.80;99.90;;;;;;4973454;28;20061;-86
2022/09/05 05:19:49;;;;;;;7.68;6.90;;;15.50;99.90;;;;;;4960824;28;20141;-87
2022/09/05 05:22:19;;;;;;;10.30;7.22;;;15.50;99.90;;;;;;4993571;28;20085;-88
2022/09/05 05:24:52;;;;;;;8.73;7.80;;;15.50;99.90;;;;;;4958436;28;20059;-86
2022/09/05 05:27:39;;;;;;;8.48;7.30;;;15.50;99.90;;;;;;4988153;28;20060;-86
2022/09/05 05:30:09;;;;;;;7.93;7.22;;;15.50;99.90;;;;;;4969081;28;20046;-86
2022/09/05 05:32:45;;;;;;;9.38;7.70;;;16.10;99.90;;;;;;4979214;28;20045;-87
2022/09/05 05:35:27;;;;;;;8.43;6.80;;;15.50;99.90;;;;;;4972896;28;20388;-83
2022/09/05 05:38:15;;;;;;;8.05;7.25;;;15.60;99.90;;;;;;4983623;28;20045;-85
2022/09/05 05:41:19;;;;;;;7.90;7.10;;;15.60;99.90;;;;;;4955241;28;20076;-84
2022/09/05 05:43:48;;;;;;;8.27;7.57;;;15.60;99.90;;;;;;4957016;28;20108;-85
2022/09/05 05:46:25;;;;;;;7.38;6.68;;;15.70;99.90;;;;;;4987626;28;20490;-82
2022/09/05 05:48:54;;;;;;;7.82;7.03;;;15.70;99.90;;;;;;4980827;28;20046;-82
2022/09/05 05:51:32;;;;;;;7.25;6.53;;;15.70;99.90;;;;;;4967122;28;20050;-83
2022/09/05 05:54:09;;;;;;;7.85;6.25;;;15.80;99.90;;;;;;4966752;28;20069;-82
2022/09/05 05:56:51;;;;;;;6.72;6.00;;;15.90;99.90;;;;;;4967445;28;20109;-85
2022/09/05 05:59:36;;;;;;;8.07;7.28;;;16.00;99.90;;;;;;4980653;28;20215;-82
2022/09/05 06:02:14;;;;;;;7.57;6.78;;;16.00;99.90;;;;;;4999522;28;20054;-82
2022/09/05 06:05:01;;;;;;;9.75;7.00;;;16.10;99.90;;;;;;5001100;28;20079;-83
2022/09/05 06:07:43;;;;;;;9.00;6.97;;;16.10;99.90;;;;;;4984190;28;20060;-82
2022/09/05 06:10:21;;;;;;;7.53;6.75;;;16.20;99.90;;;;;;4952352;28;20050;-85
2022/09/05 06:13:29;;;;;;;10.13;7.15;;;16.30;99.90;;;;;;4975500;28;20047;-86
2022/09/05 06:16:02;;;;;;;6.43;5.82;;;16.30;99.90;;;;;;4975563;28;20050;-85
2022/09/05 06:18:54;;;;;;;8.10;6.70;;;15.70;99.90;;;;;;4965437;28;20123;-85
2022/09/05 06:21:34;;;;;;;8.82;8.02;;;16.40;99.90;;;;;;4981015;28;20047;-86
2022/09/05 06:24:40;;;;;;;7.18;6.47;;;17.00;99.90;;;;;;4961206;28;20071;-86
2022/09/05 06:27:37;;;;;;;8.43;6.70;;;16.60;99.90;;;;;;4977702;28;20061;-84
2022/09/05 06:30:24;;;;;;;8.60;7.82;;;16.60;99.90;;;;;;4991980;28;20039;-86
2022/09/05 06:33:20;;;;;;;7.57;6.85;;;16.60;99.90;;;;;;4965847;28;20031;-85
2022/09/05 06:36:17;;;;;;;8.77;7.88;;;16.70;99.90;;;;;;4980956;28;20039;-86
2022/09/05 06:38:54;;;;;;;8.23;6.75;;;16.80;99.90;;;;;;4979679;28;20053;-85
2022/09/05 06:41:28;;;;;;;6.82;5.97;;;16.90;99.90;;;;;;4986275;28;20099;-86
2022/09/05 06:44:02;;;;;;;12.38;8.32;;;16.90;99.90;;;;;;4981900;28;20039;-87
2022/09/05 06:46:54;;;;;;;8.48;7.68;;;17.00;99.90;;;;;;4979671;28;20039;-89
2022/09/05 06:49:46;;;;;;;8.88;7.97;;;17.60;99.90;;;;;;4963502;28;20408;-86
2022/09/05 06:52:35;;;;;;;9.88;7.47;;;17.30;99.90;;;;;;4953522;28;20074;-85
2022/09/05 06:55:25;;;;;;;9.02;8.13;;;17.40;99.90;;;;;;4974992;28;20050;-86
2022/09/05 06:58:19;;;;;;;10.13;8.45;;;17.60;99.90;;;;;;4961719;28;20070;-82
2022/09/05 07:00:51;;;;;;;8.35;7.45;;;17.70;99.90;;;;;;4976646;28;20042;-81
2022/09/05 07:03:29;;;;;;;8.70;7.80;;;17.90;99.90;;;;;;4977166;28;20082;-82
2022/09/05 07:06:22;;;;;;;9.85;8.20;;;18.10;99.90;;;;;;4976963;28;20074;-82
2022/09/05 07:09:03;;;;;;;8.45;7.65;;;18.30;99.90;;;;;;4971609;28;20160;-82
2022/09/05 07:11:47;;;;;;;10.00;8.10;;;18.40;99.90;;;;;;4978743;28;20077;-82
2022/09/05 07:14:21;;;;;;;9.85;8.80;;;18.60;99.90;;;;;;4965305;28;20065;-82
2022/09/05 07:16:52;;;;;;;8.45;7.38;;;18.80;99.90;;;;;;4981736;28;20124;-81
2022/09/05 07:19:29;;;;;;;8.95;7.28;;;18.90;99.90;;;;;;4980687;28;20046;-82
2022/09/05 07:22:16;;;;;;;9.90;7.55;;;19.00;99.90;;;;;;4974295;28;20046;-82
2022/09/05 07:24:46;;;;;;;9.15;7.88;;;19.20;99.90;;;;;;4973973;28;20169;-81
2022/09/05 07:27:49;;;;;;;8.23;7.47;;;19.40;99.90;;;;;;4974607;28;20046;-81
2022/09/05 07:30:17;;;;;;;8.10;7.30;;;19.60;99.90;;;;;;4990412;28;20149;-82
2022/09/05 07:32:46;;;;;;;7.55;6.85;;;19.90;99.90;;;;;;4981142;28;20125;-81
2022/09/05 07:35:28;;;;;;;8.35;7.55;;;20.00;99.90;;;;;;5002392;28;20599;-82
2022/09/05 07:38:03;;;;;;;7.65;6.95;;;20.10;99.90;;;;;;4997482;28;20047;-81
2022/09/05 07:40:34;;;;;;;9.02;7.68;;;20.20;99.90;;;;;;4973118;28;20074;-81
2022/09/05 07:43:03;;;;;;;9.63;7.90;;;20.30;99.90;;;;;;4985594;28;20057;-81
2022/09/05 07:45:30;;;;;;;8.32;7.47;;;20.50;99.90;;;;;;4995139;28;20086;-82
2022/09/05 07:48:10;;;;;;;9.43;7.55;;;20.60;99.90;;;;;;4967458;28;20053;-82
2022/09/05 07:50:55;;;;;;;8.75;7.50;;;20.80;99.90;;;;;;4983972;28;20057;-82
2022/09/05 07:53:23;;;;;;;9.38;7.70;;;21.00;99.90;;;;;;4981566;28;20049;-82
2022/09/05 07:55:55;;;;;;;8.68;7.88;;;21.20;99.90;;;;;;4966429;28;20082;-82
2022/09/05 07:58:23;;;;;;;9.90;8.00;;;21.30;99.90;;;;;;5001632;28;20074;-82
2022/09/05 08:00:55;;;;;;;8.50;7.32;;;21.50;99.90;;;;;;4987341;28;20122;-82
2022/09/05 08:03:26;;;;;;;7.65;6.85;;;21.70;99.90;;;;;;4981076;28;20049;-83
2022/09/05 08:05:54;;;;;;;8.27;7.32;;;21.90;99.90;;;;;;4989483;28;20125;-83
2022/09/05 08:08:24;;;;;;;8.57;7.65;;;22.10;99.90;;;;;;4979970;28;20117;-82
2022/09/05 08:11:04;;;;;;;8.52;7.68;;;22.30;99.90;;;;;;4978984;28;20050;-82
2022/09/05 08:13:41;;;;;;;8.68;7.50;;;22.40;99.90;;;;;;4977873;28;20046;-82
2022/09/05 08:16:10;;;;;;;8.45;7.60;;;22.60;99.90;;;;;;4986536;28;20055;-83
2022/09/05 08:18:44;;;;;;;8.15;7.28;;;22.70;99.90;;;;;;4978456;28;20129;-83
2022/09/05 08:21:40;;;;;;;8.10;7.30;;;22.80;99.90;;;;;;4978564;28;20046;-81
2022/09/05 08:24:36;;;;;;;8.48;7.65;;;23.10;99.90;;;;;;4964862;28;20062;-81
2022/09/05 08:27:15;;;;;;;8.63;7.70;;;23.30;99.90;;;;;;4979531;28;20054;-82
2022/09/05 08:29:44;;;;;;;7.78;7.07;;;24.30;99.90;;;;;;4980555;28;20129;-81
2022/09/05 08:32:40;;;;;;;7.30;6.70;;;23.90;99.90;;;;;;4981102;28;20050;-82
2022/09/05 08:35:21;;;;;;;8.20;5.90;;;24.20;99.90;;;;;;4970393;28;20058;-81
2022/09/05 08:37:49;;;;;;;7.20;6.38;;;24.50;99.90;;;;;;4979058;28;20141;-81
2022/09/05 08:40:34;;;;;;;7.75;6.93;;;24.90;99.90;;;;;;4962407;28;20054;-82
2022/09/05 08:43:06;;;;;;;7.75;5.78;;;25.30;99.90;;;;;;4968631;28;20050;-81
2022/09/05 08:45:43;;;;;;;7.32;6.50;;;25.50;99.90;;;;;;4977864;28;20059;-81
2022/09/05 08:48:22;;;;;;;7.47;6.57;;;25.70;99.90;;;;;;4963201;28;20145;-82
2022/09/05 08:51:15;;;;;;;7.50;5.60;;;25.70;99.90;;;;;;4979817;28;20046;-83
2022/09/05 08:53:59;;;;;;;6.20;5.38;;;25.70;99.90;;;;;;4974233;28;20407;-85
2022/09/05 08:56:48;;;;;;;6.47;5.53;;;25.90;99.90;;;;;;4972600;28;20555;-84
2022/09/05 08:59:26;;;;;;;7.40;5.57;;;26.00;99.90;;;;;;4994855;28;20046;-83
2022/09/05 09:02:24;;;;;;;6.40;5.40;;;26.00;99.90;;;;;;4976651;28;20042;-84
2022/09/05 09:05:06;;;;;;;6.28;5.55;;;26.10;99.90;;;;;;4903707;28;20458;-85
2022/09/05 09:08:16;;;;;;;8.18;5.40;;;26.30;99.90;;;;;;4981950;28;20141;-84
2022/09/05 09:10:59;;;;;;;5.95;5.35;;;26.40;99.90;;;;;;4909435;28;20063;-83
2022/09/05 09:13:55;;;;;;;7.40;5.13;;;26.50;99.80;;;;;;4964737;28;20096;-83
2022/09/05 09:16:59;;;;;;;7.45;5.95;;;26.80;99.90;;;;;;4964212;28;20047;-84
2022/09/05 09:19:43;;;;;;;7.45;5.82;;;27.20;99.10;;;;;;4905551;29;20182;-83
2022/09/05 09:22:15;;;;;;;6.03;5.00;;;27.40;99.40;;;;;;4958424;28;20149;-84
2022/09/05 09:24:58;;;;;;;6.05;4.78;;;27.60;99.10;;;;;;4964460;28;20135;-84
2022/09/05 09:27:44;;;;;;;6.28;4.47;;;27.80;98.20;;;;;;4962949;28;20046;-82
2022/09/05 09:30:12;;;;;;;7.03;4.95;;;27.90;98.20;;;;;;4953884;28;20058;-84
2022/09/05 09:32:51;;;;;;;7.60;4.00;;;28.00;97.80;;;;;;4970422;28;20408;-82
2022/09/05 09:35:22;;;;;;;4.63;3.88;;;28.10;97.00;;;;;;4952751;28;20082;-84
2022/09/05 09:38:12;;;;;;;4.70;3.92;;;28.30;97.50;;;;;;4966511;28;20154;-83
2022/09/05 09:40:59;;;;;;;5.32;3.67;;;28.50;97.10;;;;;;4946727;28;20063;-84
2022/09/05 09:43:30;;;;;;;5.20;3.65;;;28.70;96.50;;;;;;4961872;28;20078;-82
2022/09/05 09:46:16;;;;;;;4.22;3.35;;;28.90;96.00;;;;;;4949630;28;20070;-85
2022/09/05 09:49:03;;;;;;;4.20;2.90;;;29.10;95.10;;;;;;4968100;28;20515;-83
2022/09/05 09:51:51;;;;;;;4.90;3.00;;;29.90;94.80;;;;;;4948633;28;20058;-85
2022/09/05 09:54:36;;;;;;;5.63;2.70;;;29.40;94.60;;;;;;4943470;28;20038;-85
2022/09/05 09:57:23;;;;;;;2.47;2.08;;;29.60;94.40;;;;;;4979564;28;20071;-87
2022/09/05 10:00:11;;;;;;;4.38;2.40;;;29.60;93.60;;;;;;4964727;28;20409;-85
2022/09/05 10:03:08;;;;;;;3.72;2.05;;;29.70;93.00;;;;;;4963128;28;20049;-85
2022/09/05 10:05:47;;;;;;;5.40;2.10;;;29.90;92.10;;;;;;4965298;28;20750;-86
2022/09/05 10:08:57;;;;;;;2.10;1.55;;;30.10;91.40;;;;;;4957522;28;20042;-85
2022/09/05 10:12:12;;;;;;;5.25;1.80;;;30.30;90.30;;;;;;4944133;28;20130;-85
2022/09/05 10:15:12;;;;;;;3.53;1.60;;;30.30;90.50;;;;;;4978753;28;20115;-85
2022/09/05 10:17:51;;;;;;;2.63;1.70;;;30.40;89.80;;;;;;4980476;28;20073;-85
2022/09/05 10:20:34;;;;;;;3.67;1.60;;;30.60;88.20;;;;;;4982685;28;20046;-82
2022/09/05 10:23:26;;;;;;;3.17;1.70;;;30.90;89.30;;;;;;4995451;28;20463;-84
2022/09/05 10:26:26;;;;;;;4.30;1.50;;;31.00;86.80;;;;;;4961561;28;20045;-84
2022/09/05 10:29:28;;;;;;;4.45;1.55;;;31.40;86.60;;;;;;4980619;28;20042;-84
2022/09/05 10:32:06;;;;;;;2.30;1.58;;;31.40;84.30;;;;;;4940061;28;20558;-84
2022/09/05 10:35:01;;;;;;;2.90;1.67;;;31.40;84.80;;;;;;4979818;28;20074;-85
2022/09/05 10:37:59;;;;;;;2.70;1.20;;;31.30;80.50;;;;;;4969798;28;20049;-85
2022/09/05 10:40:32;;;;;;;3.88;1.40;;;31.50;80.30;;;;;;4985741;28;20519;-86
2022/09/05 10:43:21;;;;;;;3.75;1.48;;;31.60;80.90;;;;;;4967081;28;20044;-85
2022/09/05 10:45:50;;;;;;;1.77;0.95;;;31.70;76.70;;;;;;4985991;28;20045;-85
2022/09/05 10:48:28;;;;;;;4.32;1.30;;;31.90;78.80;;;;;;4980971;28;20495;-85
2022/09/05 10:51:14;;;;;;;3.83;1.10;;;32.00;76.80;;;;;;4976576;28;20045;-87
2022/09/05 10:53:47;;;;;;;2.50;1.30;;;32.20;75.10;;;;;;4998710;28;20042;-84
2022/09/05 10:56:20;;;;;;;4.43;1.20;;;32.40;76.20;;;;;;4963157;28;20046;-85
2022/09/05 10:59:03;;;;;;;3.40;1.08;;;33.00;76.30;;;;;;4964673;28;20112;-84
2022/09/05 11:01:47;;;;;;;2.90;1.10;;;32.90;74.80;;;;;;4965560;28;20046;-87
2022/09/05 11:04:39;;;;;;;2.53;1.35;;;33.50;74.50;;;;;;4968950;28;20095;-85
2022/09/05 11:07:14;;;;;;;2.83;1.00;;;33.40;72.30;;;;;;4984635;28;20058;-86
2022/09/05 11:10:05;;;;;;;5.05;1.10;;;33.60;70.60;;;;;;4983882;28;20169;-84
2022/09/05 11:12:56;;;;;;;3.45;1.15;;;33.60;69.30;;;;;;4985843;28;20092;-85
2022/09/05 11:16:03;;;;;;;2.95;1.02;;;33.60;68.30;;;;;;4982325;28;20046;-89
2022/09/05 11:19:02;;;;;;;2.47;1.02;;;33.60;66.70;;;;;;4987079;28;20050;-89
2022/09/05 11:21:56;;;;;;;1.70;0.95;;;33.50;65.10;;;;;;4982907;28;20053;-89
2022/09/05 11:24:45;;;;;;;2.08;0.93;;;33.50;66.30;;;;;;4977006;28;20045;-88
2022/09/05 11:27:33;;;;;;;1.50;0.88;;;33.60;66.50;;;;;;4987156;28;20107;-89
2022/09/05 11:30:18;;;;;;;2.45;0.95;;;33.80;64.30;;;;;;4965673;28;20117;-88
2022/09/05 11:33:08;;;;;;;4.22;1.02;;;33.80;64.10;;;;;;4982469;28;20472;-87
2022/09/05 11:36:06;;;;;;;2.00;1.15;;;34.20;64.50;;;;;;4990827;28;20097;-87
2022/09/05 11:38:58;;;;;;;2.55;1.20;;;34.30;63.30;;;;;;4988766;28;20077;-86
2022/09/05 11:41:30;;;;;;;23.65;2.28;;;34.40;63.50;;;;;;4964255;28;20046;-87
2022/09/05 11:44:22;;;;;;;2.08;1.05;;;34.70;63.10;;;;;;4985252;28;20736;-88
2022/09/05 11:47:06;;;;;;;44.70;3.83;;;34.80;61.50;;;;;;4986162;28;20042;-88
2022/09/05 11:50:08;;;;;;;2.55;1.08;;;35.00;62.80;;;;;;4964661;28;20467;-88
2022/09/05 11:56:46;;;;;;;;;;;;;;;;;;;;;
2022/09/05 11:59:57;;;;;;;2.50;0.95;;;36.20;58.00;;;;;;4980410;28;20053;-90
2022/09/05 12:02:32;;;;;;;2.83;0.90;;;36.30;56.30;;;;;;4980212;28;20046;-86
2022/09/05 12:05:51;;;;;;;3.03;0.90;;;36.50;57.60;;;;;;4980923;28;20064;-88
2022/09/05 12:08:31;;;;;;;1.17;0.68;;;36.60;55.80;;;;;;4983841;28;20057;-86
2022/09/05 12:11:19;;;;;;;2.13;0.95;;;36.40;55.90;;;;;;4965637;28;20484;-90
2022/09/05 12:14:13;;;;;;;3.72;1.20;;;36.40;55.70;;;;;;4970043;28;20049;-90
2022/09/05 12:16:58;;;;;;;2.17;0.80;;;36.50;56.00;;;;;;4968750;28;20042;-89
2022/09/05 12:19:58;;;;;;;;;;;;;;;;;;;;;
2022/09/05 12:22:34;;;;;;;3.53;0.95;;;36.60;54.80;;;;;;5002898;28;20522;-89
2022/09/05 12:25:47;;;;;;;1.90;1.05;;;36.80;55.70;;;;;;4968863;28;20600;-88
2022/09/05 12:28:34;;;;;;;5.38;1.33;;;36.70;55.50;;;;;;4927192;28;20060;-88
2022/09/05 12:31:42;;;;;;;1.83;0.90;;;36.40;56.60;;;;;;4979245;28;20042;-88
2022/09/05 12:34:17;;;;;;;6.03;1.52;;;36.10;55.60;;;;;;4990671;28;20049;-88
2022/09/05 12:36:50;;;;;;;10.73;2.15;;;35.70;56.00;;;;;;4999386;28;20089;-89
2022/09/05 12:39:40;;;;;;;8.77;1.70;;;35.30;55.70;;;;;;4990493;28;20046;-88
2022/09/05 12:42:17;;;;;;;7.97;1.40;;;34.90;56.50;;;;;;4990446;28;20046;-88
2022/09/05 12:44:49;;;;;;;3.20;0.90;;;34.60;56.30;;;;;;4976961;28;20442;-89
2022/09/05 12:47:19;;;;;;;3.40;1.35;;;34.30;56.30;;;;;;4987171;28;20057;-88
2022/09/05 12:50:12;;;;;;;5.28;1.40;;;34.00;56.60;;;;;;4998710;28;20068;-89
2022/09/05 12:53:02;;;;;;;7.93;1.70;;;33.70;56.90;;;;;;4979420;28;20048;-89
2022/09/05 12:55:51;;;;;;;3.78;1.08;;;33.50;57.60;;;;;;4994470;28;20042;-89
2022/09/05 12:58:34;;;;;;;3.03;1.10;;;33.30;57.70;;;;;;4982499;28;20052;-88
2022/09/05 13:01:14;;;;;;;1.60;0.80;;;33.20;57.80;;;;;;4985706;28;20038;-88
2022/09/05 13:04:29;;;;;;;2.72;1.10;;;33.30;57.00;;;;;;5000594;28;20046;-88
2022/09/05 13:07:08;;;;;;;2.15;1.17;;;33.50;57.40;;;;;;4960918;28;20065;-89
2022/09/05 13:09:49;;;;;;;2.03;0.90;;;33.60;57.40;;;;;;4983356;28;20062;-90
2022/09/05 13:12:23;;;;;;;2.08;0.95;;;33.50;57.10;;;;;;4972542;28;20042;-88
2022/09/05 13:15:27;;;;;;;2.05;0.80;;;33.50;57.00;;;;;;5000759;28;20046;-88
2022/09/05 13:17:56;;;;;;;2.90;0.80;;;33.40;57.30;;;;;;4984159;28;20057;-86
2022/09/05 13:20:32;;;;;;;2.17;0.90;;;33.60;57.60;;;;;;4980096;28;20046;-83
2022/09/05 13:23:10;;;;;;;1.52;0.98;;;33.80;57.20;;;;;;4978630;28;20129;-84
2022/09/05 13:25:42;;;;;;;3.50;1.08;;;34.40;57.10;;;;;;4995004;28;20129;-84
2022/09/05 13:28:13;;;;;;;2.00;1.10;;;34.80;57.20;;;;;;4986759;28;20053;-84
2022/09/05 13:31:06;;;;;;;2.00;0.98;;;34.90;56.10;;;;;;4980152;28;20085;-83
2022/09/05 13:33:51;;;;;;;3.47;0.93;;;35.00;55.80;;;;;;4986283;28;20137;-83
2022/09/05 13:36:25;;;;;;;1.33;0.80;;;34.90;55.90;;;;;;4978837;28;20723;-82
2022/09/05 13:39:00;;;;;;;1.80;1.08;;;34.80;56.30;;;;;;4978949;28;20468;-82
2022/09/05 13:41:51;;;;;;;2.17;1.00;;;34.70;55.80;;;;;;4971861;28;20059;-83
2022/09/05 13:44:20;;;;;;;3.67;1.20;;;34.30;56.00;;;;;;4979333;28;20161;-83
2022/09/05 13:47:02;;;;;;;2.45;0.90;;;33.90;57.00;;;;;;4981408;28;20050;-83
2022/09/05 13:49:48;;;;;;;2.15;1.13;;;33.60;56.80;;;;;;4979645;28;20484;-83
2022/09/05 13:52:28;;;;;;;3.38;1.30;;;33.50;56.70;;;;;;4972417;28;20054;-82
2022/09/05 13:55:11;;;;;;;4.00;1.23;;;33.30;56.40;;;;;;4980851;28;20527;-83
2022/09/05 13:57:47;;;;;;;3.08;0.90;;;33.00;57.20;;;;;;4980115;28;20054;-83
2022/09/05 14:00:21;;;;;;;3.95;1.13;;;33.00;57.50;;;;;;4987245;28;20396;-81
2022/09/05 14:03:21;;;;;;;3.38;1.08;;;33.00;58.00;;;;;;4985932;28;20505;-87
2022/09/05 14:06:08;;;;;;;3.88;1.38;;;33.00;57.40;;;;;;4982473;28;20050;-82
2022/09/05 14:08:43;;;;;;;2.92;1.25;;;33.10;57.60;;;;;;4981910;28;20042;-83
2022/09/05 14:11:17;;;;;;;3.30;0.98;;;33.30;57.80;;;;;;4975903;28;20054;-85
2022/09/05 14:14:10;;;;;;;3.22;1.10;;;33.50;57.60;;;;;;4985619;28;20065;-84
2022/09/05 14:16:44;;;;;;;2.25;1.05;;;33.60;57.70;;;;;;4980747;28;20050;-83
2022/09/05 14:22:30;;;;;;;2.60;1.02;;;33.90;56.50;;;;;;4983498;28;20066;-87
2022/09/05 14:25:10;;;;;;;2.65;0.85;;;34.20;56.70;;;;;;4997107;28;20157;-89